Menno, South Dakota
Current Conditions -  °F | °C
As of 3:55 PM on Monday 20 Oct 2014 (Local Time) from KYKN Reporting Station
Clear Clear  
Wind Chill: 70°   Ceiling: Unl
Heat Index: 70°   Visibility: 10mi
Dew Point: 39°   Wind: 6mph
Humidity: 33%   Direction: 200°SSW
Pressure: 30.04"   Gusts: NA
Location:  43.24°N, 97.58°W
Report Text: KYKN 202055Z AUTO 20005KT 10SM CLR 21/04 A3004 RMK AO1 57020
Loading
Personal Weather Stations






























Interactive Weather Map New forecast layout! Learn more

10-Day Weather Forecast

Advertisements
Track Severe Weather on mobile